Millersville, Maryland
Current Conditions -  °F | °C
As of 3:15 PM on Thursday 23 Oct 2014 (Local Time) from KFME Reporting Station
Overcast Overcast  
Wind Chill: 61°   Ceiling: 4100
Heat Index: 61°   Visibility: 10mi
Dew Point: 45°   Wind: 10mph
Humidity: 55%   Direction: 290°WNW
Pressure: 29.86"   Gusts: 20mph
Location:  39.06°N, 76.65°W
Report Text: KFME 231915Z AUTO 29009G17KT 10SM OVC041 16/07 A2986 RMK AO1
Loading
Personal Weather Stations






























Interactive Weather Map
Tropical Storm Tracking
New forecast layout! Learn more

10-Day Weather Forecast

Advertisements
Track Severe Weather on mobile